createdAt,value
2019-03-23T00:00:41.232Z,10.47
2019-03-23T00:03:08.714Z,10.45
2019-03-23T00:05:36.032Z,10.45
2019-03-23T00:08:03.459Z,10.52
2019-03-23T00:10:31.875Z,10.52
2019-03-23T00:12:59.350Z,10.54
2019-03-23T00:15:26.676Z,10.48
2019-03-23T00:17:53.989Z,10.48
2019-03-23T00:20:21.202Z,10.41
2019-03-23T00:22:48.422Z,10.41
2019-03-23T00:25:15.711Z,10.34
2019-03-23T00:27:42.926Z,10.35
2019-03-23T00:30:10.462Z,10.33
2019-03-23T00:32:37.775Z,10.22
2019-03-23T00:35:06.174Z,10.18
2019-03-23T00:37:33.553Z,10.12
2019-03-23T00:40:00.872Z,10.07
2019-03-23T00:42:28.185Z,10.04
2019-03-23T00:44:55.412Z,10.08
2019-03-23T00:47:22.626Z,10.08
2019-03-23T00:49:50.121Z,10.01
2019-03-23T00:52:17.340Z,10.01
2019-03-23T00:54:44.564Z,10.04
2019-03-23T00:57:11.875Z,10.04
2019-03-23T00:59:39.182Z,9.80
2019-03-23T01:02:06.389Z,9.81
2019-03-23T01:04:33.593Z,9.81
2019-03-23T01:07:00.929Z,9.79
2019-03-23T01:09:28.137Z,9.59
2019-03-23T01:11:55.502Z,9.53
2019-03-23T01:14:22.937Z,9.41
2019-03-23T01:16:50.463Z,9.36
2019-03-23T01:19:17.668Z,9.35
2019-03-23T01:21:45.002Z,9.45
2019-03-23T01:24:12.196Z,9.45
2019-03-23T01:26:39.397Z,9.61
2019-03-23T01:29:06.705Z,9.61
2019-03-23T01:31:35.101Z,9.45
2019-03-23T01:34:02.438Z,9.44
2019-03-23T01:36:29.624Z,9.49
2019-03-23T01:38:56.828Z,9.45
2019-03-23T01:41:24.736Z,9.51
2019-03-23T01:43:51.963Z,9.51
2019-03-23T01:46:19.289Z,9.30
2019-03-23T01:48:46.518Z,9.29
2019-03-23T01:51:13.724Z,9.09
2019-03-23T01:53:40.938Z,8.89
2019-03-23T01:56:08.151Z,8.84
2019-03-23T01:58:35.455Z,8.80
2019-03-23T02:01:02.766Z,8.66
2019-03-23T02:03:30.087Z,8.56
2019-03-23T02:05:57.387Z,8.48
2019-03-23T02:08:24.589Z,8.40
2019-03-23T02:10:51.897Z,8.33
2019-03-23T02:13:19.267Z,8.31
2019-03-23T02:15:46.451Z,8.06
2019-03-23T02:18:13.750Z,7.83
2019-03-23T02:20:40.965Z,7.78
2019-03-23T02:23:08.165Z,7.66
2019-03-23T02:25:35.474Z,7.67
2019-03-23T02:28:02.869Z,7.69
2019-03-23T02:30:30.129Z,7.72
2019-03-23T02:32:57.339Z,7.68
2019-03-23T02:35:24.627Z,7.54
2019-03-23T02:37:51.843Z,7.49
2019-03-23T02:40:19.297Z,7.45
2019-03-23T02:42:46.493Z,7.49
2019-03-23T02:45:14.004Z,7.39
2019-03-23T02:47:41.186Z,7.29
2019-03-23T02:50:25.154Z,7.22
2019-03-23T02:52:46.635Z,7.16
2019-03-23T02:55:14.206Z,7.00
2019-03-23T02:57:41.429Z,6.88
2019-03-23T03:00:09.263Z,7.02
2019-03-23T03:02:36.665Z,6.86
2019-03-23T03:05:04.744Z,6.86
2019-03-23T03:07:42.087Z,6.75
2019-03-23T03:10:01.160Z,6.71
2019-03-23T03:12:28.352Z,6.68
2019-03-23T03:14:55.595Z,6.69
2019-03-23T03:17:22.778Z,6.80
2019-03-23T03:19:49.980Z,6.84
2019-03-23T03:22:17.539Z,6.81
2019-03-23T03:24:44.842Z,6.75
2019-03-23T03:27:12.037Z,6.73
2019-03-23T03:29:39.286Z,6.76
2019-03-23T03:32:06.483Z,6.73
2019-03-23T03:34:33.694Z,6.87
2019-03-23T03:37:01.031Z,6.77
2019-03-23T03:39:28.227Z,6.67
2019-03-23T03:41:55.538Z,6.73
2019-03-23T03:44:22.781Z,6.78
2019-03-23T03:46:50.105Z,6.73
2019-03-23T03:49:17.291Z,6.67
2019-03-23T03:51:44.518Z,6.75
2019-03-23T03:54:11.800Z,6.72
2019-03-23T03:56:39.109Z,6.73
2019-03-23T03:59:06.501Z,6.71
2019-03-23T04:01:33.682Z,6.49
2019-03-23T04:04:00.884Z,6.38
2019-03-23T04:06:28.676Z,6.35
2019-03-23T04:08:55.872Z,6.31
2019-03-23T04:11:23.083Z,6.25
2019-03-23T04:13:50.432Z,6.23
2019-03-23T04:16:17.703Z,6.27
2019-03-23T04:18:45.069Z,6.33
2019-03-23T04:21:12.286Z,6.32
2019-03-23T04:23:39.719Z,6.32
2019-03-23T04:26:07.081Z,6.32
2019-03-23T04:28:34.414Z,6.34
2019-03-23T04:31:01.709Z,6.36
2019-03-23T04:33:29.018Z,6.24
2019-03-23T04:35:56.227Z,6.30
2019-03-23T04:38:23.477Z,6.28
2019-03-23T04:40:50.645Z,6.39
2019-03-23T04:43:17.893Z,6.38
2019-03-23T04:45:45.086Z,6.40
2019-03-23T04:48:12.397Z,6.42
2019-03-23T04:50:39.724Z,6.45
2019-03-23T04:53:06.914Z,6.42
2019-03-23T04:55:34.274Z,6.42
2019-03-23T04:58:01.565Z,6.45
2019-03-23T05:00:28.765Z,6.40
2019-03-23T05:02:56.096Z,6.48
2019-03-23T05:05:23.384Z,6.47
2019-03-23T05:07:50.580Z,6.38
2019-03-23T05:10:17.986Z,6.34
2019-03-23T05:12:45.165Z,6.40
2019-03-23T05:15:12.577Z,6.44
2019-03-23T05:17:39.798Z,6.47
2019-03-23T05:20:07.114Z,6.48
2019-03-23T05:22:34.452Z,6.44
2019-03-23T05:25:01.781Z,6.52
2019-03-23T05:27:28.981Z,6.39
2019-03-23T05:29:56.221Z,6.41
2019-03-23T05:32:23.405Z,6.47
2019-03-23T05:34:50.610Z,6.52
2019-03-23T05:37:18.823Z,6.58
2019-03-23T05:39:46.023Z,6.54
2019-03-23T05:42:13.247Z,6.55
2019-03-23T05:44:40.482Z,6.57
2019-03-23T05:47:07.688Z,6.52
2019-03-23T05:49:34.889Z,6.58
2019-03-23T05:52:02.186Z,6.58
2019-03-23T05:54:29.710Z,6.58
2019-03-23T05:56:57.014Z,6.60
2019-03-23T05:59:24.301Z,6.56
2019-03-23T06:01:51.595Z,6.54
2019-03-23T06:04:18.785Z,6.59
2019-03-23T06:06:45.988Z,6.58
2019-03-23T06:09:13.290Z,6.57
2019-03-23T06:11:40.489Z,6.50
2019-03-23T06:14:07.683Z,6.57
2019-03-23T06:16:34.871Z,6.64
2019-03-23T06:19:02.106Z,6.62
2019-03-23T06:21:29.282Z,6.60
2019-03-23T06:23:56.477Z,6.58
2019-03-23T06:26:23.712Z,6.63
2019-03-23T06:28:50.905Z,6.61
2019-03-23T06:31:18.194Z,6.65
2019-03-23T06:33:45.417Z,6.68
2019-03-23T06:36:12.718Z,6.71
2019-03-23T06:38:39.907Z,6.74
2019-03-23T06:41:07.145Z,6.73
2019-03-23T06:43:34.385Z,6.74
2019-03-23T06:46:01.602Z,6.76
2019-03-23T06:48:28.837Z,6.80
2019-03-23T06:50:56.024Z,6.80
2019-03-23T06:53:23.248Z,6.74
2019-03-23T06:55:50.460Z,6.78
2019-03-23T06:58:17.761Z,6.82
2019-03-23T07:00:44.984Z,6.93
2019-03-23T07:03:12.198Z,7.01
2019-03-23T07:05:39.393Z,7.05
2019-03-23T07:08:06.590Z,7.06
2019-03-23T07:10:33.897Z,7.06
2019-03-23T07:13:01.098Z,7.15
2019-03-23T07:15:28.286Z,7.12
2019-03-23T07:17:55.514Z,7.12
2019-03-23T07:20:22.807Z,7.12
2019-03-23T07:22:50.110Z,7.14
2019-03-23T07:25:17.418Z,7.17
2019-03-23T07:27:44.746Z,7.24
2019-03-23T07:30:12.921Z,7.27
2019-03-23T07:32:40.207Z,7.31
2019-03-23T07:35:07.771Z,7.42
2019-03-23T07:37:34.971Z,7.50
2019-03-23T07:40:02.392Z,7.43
2019-03-23T07:42:29.579Z,7.42
2019-03-23T07:44:58.290Z,7.48
2019-03-23T07:47:25.577Z,7.52
2019-03-23T07:49:52.767Z,7.48
2019-03-23T07:52:19.969Z,7.51
2019-03-23T07:54:47.171Z,7.49
2019-03-23T07:57:14.590Z,7.51
2019-03-23T07:59:41.980Z,7.58
2019-03-23T08:02:09.155Z,7.52
2019-03-23T08:04:36.370Z,7.63
2019-03-23T08:07:03.863Z,7.68
2019-03-23T08:09:37.674Z,7.71
2019-03-23T08:12:00.313Z,7.67
2019-03-23T08:14:27.544Z,7.70
2019-03-23T08:16:55.122Z,7.70
2019-03-23T08:19:22.314Z,7.67
2019-03-23T08:21:49.498Z,7.96
2019-03-23T08:24:17.025Z,7.78
2019-03-23T08:26:44.310Z,7.83
2019-03-23T08:29:11.904Z,7.91
2019-03-23T08:31:39.241Z,8.00
2019-03-23T08:34:06.613Z,8.00
2019-03-23T08:36:33.826Z,8.05
2019-03-23T08:39:01.204Z,8.02
2019-03-23T08:41:30.655Z,8.05
2019-03-23T08:43:57.859Z,8.04
2019-03-23T08:46:25.214Z,8.00
2019-03-23T08:48:52.418Z,7.95
2019-03-23T08:51:19.830Z,8.00
2019-03-23T08:53:47.398Z,8.10
2019-03-23T08:56:14.732Z,8.14
2019-03-23T08:58:41.089Z,8.10
2019-03-23T09:01:08.409Z,8.25
2019-03-23T09:03:36.086Z,8.32
2019-03-23T09:06:03.418Z,8.27
2019-03-23T09:08:30.584Z,8.28
2019-03-23T09:10:57.823Z,8.27
2019-03-23T09:13:25.226Z,8.32
2019-03-23T09:15:52.749Z,8.25
2019-03-23T09:18:20.316Z,8.26
2019-03-23T09:20:47.520Z,8.32
2019-03-23T09:23:15.170Z,8.28
2019-03-23T09:25:45.583Z,8.43
2019-03-23T09:28:14.074Z,8.41
2019-03-23T09:30:41.396Z,8.49
2019-03-23T09:33:08.732Z,8.48
2019-03-23T09:35:39.493Z,8.52
2019-03-23T09:38:05.419Z,8.57
2019-03-23T09:40:32.922Z,8.63
2019-03-23T09:43:00.213Z,8.59
2019-03-23T09:45:27.942Z,8.57
2019-03-23T09:47:55.261Z,8.53
2019-03-23T09:50:22.468Z,8.60
2019-03-23T09:52:50.029Z,8.73
2019-03-23T09:55:17.243Z,8.81
2019-03-23T09:57:45.444Z,8.86
2019-03-23T10:00:41.248Z,8.98
2019-03-23T10:03:08.785Z,8.96
2019-03-23T10:05:36.030Z,8.94
2019-03-23T10:08:03.235Z,8.91
2019-03-23T10:10:30.442Z,9.11
2019-03-23T10:12:57.786Z,9.16
2019-03-23T10:15:25.116Z,9.03
2019-03-23T10:17:52.322Z,9.05
2019-03-23T10:20:19.570Z,8.98
2019-03-23T10:22:46.777Z,8.91
2019-03-23T10:25:14.187Z,9.08
2019-03-23T10:27:41.670Z,9.08
2019-03-23T10:30:09.109Z,9.17
2019-03-23T10:32:36.517Z,9.20
2019-03-23T10:35:06.246Z,9.29
2019-03-23T10:37:33.563Z,9.31
2019-03-23T10:40:00.785Z,9.36
2019-03-23T10:42:28.005Z,9.23
2019-03-23T10:44:55.222Z,9.30
2019-03-23T10:47:22.564Z,9.32
2019-03-23T10:49:49.762Z,9.30
2019-03-23T10:52:16.958Z,9.26
2019-03-23T10:54:44.186Z,9.40
2019-03-23T10:57:11.508Z,9.46
2019-03-23T10:59:38.817Z,9.52
2019-03-23T11:02:06.120Z,9.61
2019-03-23T11:04:33.437Z,9.52
2019-03-23T11:07:00.638Z,9.68
2019-03-23T11:09:28.946Z,9.55
2019-03-23T11:11:56.178Z,9.56
2019-03-23T11:14:23.478Z,9.57
2019-03-23T11:16:50.745Z,9.59
2019-03-23T11:19:17.969Z,9.51
2019-03-23T11:21:45.170Z,9.57
2019-03-23T11:24:12.475Z,9.46
2019-03-23T11:26:39.781Z,9.57
2019-03-23T11:29:08.415Z,9.51
2019-03-23T11:31:35.803Z,9.49
2019-03-23T11:34:03.292Z,9.51
2019-03-23T11:36:30.514Z,9.51
2019-03-23T11:38:57.839Z,9.52
2019-03-23T11:41:25.052Z,9.42
2019-03-23T11:43:52.267Z,9.38
2019-03-23T11:46:19.481Z,9.38
2019-03-23T11:48:47.496Z,9.31
2019-03-23T11:51:14.718Z,9.36
2019-03-23T11:53:41.945Z,9.34
2019-03-23T11:56:09.174Z,9.41
2019-03-23T11:58:36.383Z,9.52
2019-03-23T12:01:03.641Z,9.48
2019-03-23T12:03:30.858Z,9.39
2019-03-23T12:05:58.062Z,9.41
2019-03-23T12:08:25.276Z,9.45
2019-03-23T12:11:02.510Z,9.42
2019-03-23T12:13:21.906Z,9.26
2019-03-23T12:15:49.138Z,9.19
2019-03-23T12:18:16.387Z,9.25
2019-03-23T12:20:43.722Z,9.36
2019-03-23T12:23:10.927Z,9.32
2019-03-23T12:25:38.259Z,9.31
2019-03-23T12:28:05.479Z,9.44
2019-03-23T12:30:32.801Z,9.58
2019-03-23T12:33:00.186Z,9.68
2019-03-23T12:35:27.510Z,9.66
2019-03-23T12:37:54.937Z,9.75
2019-03-23T12:40:22.150Z,9.75
2019-03-23T12:42:49.622Z,9.79
2019-03-23T12:45:17.043Z,9.71
2019-03-23T12:47:44.263Z,10.14
2019-03-23T12:50:12.304Z,10.14
2019-03-23T12:52:39.622Z,10.34
2019-03-23T12:55:06.970Z,10.87
2019-03-23T12:57:35.420Z,11.19
2019-03-23T13:00:03.520Z,11.19
2019-03-23T13:02:30.750Z,10.90
2019-03-23T13:04:57.991Z,11.15
2019-03-23T13:07:25.256Z,11.17
2019-03-23T13:09:52.488Z,10.94
2019-03-23T13:12:19.716Z,10.94
2019-03-23T13:14:46.948Z,11.27
2019-03-23T13:17:14.270Z,11.27
2019-03-23T13:19:41.634Z,11.52
2019-03-23T13:22:08.841Z,11.52
2019-03-23T13:24:37.123Z,11.43
2019-03-23T13:27:04.459Z,11.23
2019-03-23T13:29:31.673Z,11.23
2019-03-23T13:31:58.898Z,11.29
2019-03-23T13:34:26.161Z,11.61
2019-03-23T13:36:53.374Z,11.65
2019-03-23T13:39:20.726Z,11.86
2019-03-23T13:41:49.010Z,11.76
2019-03-23T13:44:17.794Z,11.78
2019-03-23T13:46:45.115Z,12.21
2019-03-23T13:49:12.745Z,12.47
2019-03-23T13:51:40.918Z,12.69
2019-03-23T13:54:08.207Z,12.66
2019-03-23T13:56:35.443Z,12.45
2019-03-23T13:59:02.919Z,12.82
2019-03-23T14:01:30.281Z,12.92
2019-03-23T14:03:57.482Z,13.03
2019-03-23T14:06:24.717Z,13.47
2019-03-23T14:08:52.272Z,13.95
2019-03-23T14:11:19.604Z,14.62
2019-03-23T14:13:46.906Z,14.67
2019-03-23T14:16:14.386Z,14.97
2019-03-23T14:18:41.685Z,15.14
2019-03-23T14:21:08.911Z,15.83
2019-03-23T14:23:36.128Z,16.30
2019-03-23T14:26:03.591Z,16.79
2019-03-23T14:28:30.978Z,16.08
2019-03-23T14:30:58.512Z,16.45
2019-03-23T14:33:25.761Z,17.43
2019-03-23T14:35:53.021Z,18.23
2019-03-23T14:38:20.312Z,17.24
2019-03-23T14:40:47.540Z,16.96
2019-03-23T14:43:14.765Z,16.93
2019-03-23T14:45:42.014Z,17.41
2019-03-23T14:48:09.216Z,16.96
2019-03-23T14:50:36.526Z,17.20
2019-03-23T14:53:03.869Z,17.28
2019-03-23T14:55:31.078Z,16.33
2019-03-23T14:57:58.321Z,16.09
2019-03-23T15:00:29.948Z,16.28
2019-03-23T15:02:57.180Z,16.27
2019-03-23T15:05:24.380Z,15.17
2019-03-23T15:07:51.707Z,16.43
2019-03-23T15:10:18.955Z,16.75
2019-03-23T15:12:46.275Z,16.50
2019-03-23T15:15:13.654Z,16.08
2019-03-23T15:17:48.383Z,16.11
2019-03-23T15:20:10.322Z,15.55
2019-03-23T15:22:45.220Z,14.52
2019-03-23T15:25:12.543Z,14.45
2019-03-23T15:27:39.776Z,14.19
2019-03-23T15:30:07.655Z,14.16
2019-03-23T15:32:34.999Z,13.91
2019-03-23T15:35:02.418Z,13.47
2019-03-23T15:37:29.768Z,13.68
2019-03-23T15:39:56.960Z,13.24
2019-03-23T15:42:24.908Z,12.91
2019-03-23T15:44:52.465Z,12.45
2019-03-23T15:47:19.712Z,12.44
2019-03-23T15:49:46.884Z,12.50
2019-03-23T15:52:14.820Z,12.58
2019-03-23T15:54:42.030Z,12.69
2019-03-23T20:43:30.577Z,6.02
2019-03-23T20:45:58.225Z,5.97
2019-03-23T20:48:25.837Z,5.98
2019-03-23T20:50:53.578Z,6.01
2019-03-23T20:53:20.962Z,6.05
2019-03-23T20:55:48.154Z,6.31
2019-03-23T20:58:16.035Z,6.50
2019-03-23T21:00:43.272Z,6.50
2019-03-23T21:03:10.810Z,6.07
2019-03-23T21:05:38.106Z,6.05
2019-03-23T21:08:05.395Z,6.14
2019-03-23T21:10:32.714Z,6.22
2019-03-23T21:13:00.224Z,6.06
2019-03-23T21:15:27.512Z,5.91
2019-03-23T21:17:55.166Z,5.83
2019-03-23T21:20:22.824Z,5.87
2019-03-23T21:22:50.462Z,6.01
2019-03-23T21:25:17.750Z,5.97
2019-03-23T21:27:45.103Z,5.96
2019-03-23T21:30:13.349Z,5.83
2019-03-23T21:32:40.637Z,5.77
2019-03-23T21:35:08.077Z,5.77
2019-03-23T21:37:35.659Z,5.69
2019-03-23T21:40:03.228Z,5.67
2019-03-23T21:42:30.450Z,5.69
2019-03-23T21:44:57.762Z,5.70
2019-03-23T21:47:25.102Z,5.76
2019-03-23T21:49:52.398Z,5.72
2019-03-23T21:52:19.610Z,5.63
2019-03-23T21:54:46.910Z,5.60
2019-03-23T21:57:14.145Z,5.56
2019-03-23T21:59:41.370Z,5.60
2019-03-23T22:02:08.889Z,5.57
2019-03-23T22:04:36.230Z,5.59
2019-03-23T22:07:03.791Z,5.59
2019-03-23T22:09:31.172Z,5.53
2019-03-23T22:11:58.629Z,5.57
2019-03-23T22:14:25.930Z,5.59
2019-03-23T22:16:53.421Z,5.62
2019-03-23T22:19:20.605Z,5.69
2019-03-23T22:21:47.815Z,5.61
2019-03-23T22:24:15.058Z,5.57
2019-03-23T22:26:42.282Z,5.51
2019-03-23T22:29:09.486Z,5.53
2019-03-23T22:31:36.754Z,5.65
2019-03-23T22:34:04.082Z,5.73
2019-03-23T22:36:31.289Z,5.80
2019-03-23T22:38:58.591Z,5.71
2019-03-23T22:41:26.925Z,5.62
2019-03-23T22:43:54.235Z,5.66
2019-03-23T22:46:21.470Z,5.56
2019-03-23T22:48:48.690Z,5.52
2019-03-23T22:51:15.921Z,5.55
2019-03-23T22:53:43.151Z,5.55
2019-03-23T22:56:10.385Z,5.58
2019-03-23T22:58:37.681Z,5.60
2019-03-23T23:01:05.198Z,5.60
2019-03-23T23:03:32.534Z,5.41
2019-03-23T23:05:59.783Z,5.43
2019-03-23T23:08:27.018Z,5.42
2019-03-23T23:10:54.546Z,5.42
2019-03-23T23:13:22.207Z,5.37
2019-03-23T23:15:49.422Z,5.47
2019-03-23T23:18:17.010Z,5.48
2019-03-23T23:20:44.567Z,5.42
2019-03-23T23:23:11.960Z,5.45
2019-03-23T23:25:39.366Z,5.46
2019-03-23T23:28:06.707Z,5.35
2019-03-23T23:30:34.463Z,5.41
2019-03-23T23:33:01.664Z,5.39
2019-03-23T23:35:29.145Z,5.55
2019-03-23T23:37:57.537Z,5.40
2019-03-23T23:40:24.998Z,5.28
2019-03-23T23:42:52.271Z,5.29
2019-03-23T23:45:20.074Z,5.32
2019-03-23T23:47:47.451Z,5.30
2019-03-23T23:50:14.929Z,5.22
2019-03-23T23:52:42.341Z,5.09
2019-03-23T23:55:09.831Z,5.02
2019-03-23T23:57:37.251Z,5.00
